• Join FlightAware (Why Join?)
  • Login
  • US Flag 
Rudolph Flight #1: Arrived! 
06:00PM EST


 

Airport Tracker/Info


-or-


 

Live Flight TrackerFlight Track Log ✈ JBU106 ✈ 02-Jul-2013 ✈ KORD - KJFK

Flight Track Log - Related Links

Times and Time Zones

All times are in EDT time to prevent confusion due to time zone crossing. See the JBU106 flight status page for this flight to view local times or setup timezone preferences in your user account.

Time Position Orientation Groundspeed Altitude Reporting Facility
EDT Latitude Longitude Course Direction KTS MPH feet Rate Location/Type
08:12AM 41.9833 -87.8333 80° East 169 194 2,900  Level Chicago TRACON
08:12AM 41.9797 -87.8008 98° East 176 203 3,700 2,220 Climbing Chicago Center
08:13AM 41.9733 -87.7067 95° East 231 266 6,600 3,120 Climbing Chicago Center
08:14AM 41.9853 -87.5875 82° East 282 325 10,200 2,640 Climbing Chicago Center
08:15AM 42.0755 -87.2013 78° East  Level FlightAware Approximate
08:15AM 42.0117 -87.4825 71° East 296 341 12,100  Level Chicago Center
08:16AM 42.0991 -87.0556 77° East  Level FlightAware Approximate
08:16AM 42.0417 -87.3569 72° East 348 400 14,100  Level Chicago Center
08:17AM 42.1136 -86.9080 80° East  Level FlightAware Approximate
08:17AM 42.0728 -87.2258 72° East 367 422 16,500  Level Chicago Center
08:18AM 42.1047 -87.0903 72° East 379 436 18,400 1,800 Climbing Chicago Center
08:19AM 42.1161 -86.9436 84° East 399 459 20,300 2,400 Climbing Chicago Center
08:20AM 42.1242 -86.7631 86° East 404 465 23,400 2,460 Climbing Chicago Center
08:21AM 42.1283 -86.6272 88° East 389 448 25,500 1,380 Climbing Chicago Center
08:22AM 42.1325 -86.4817 88° East 389 448 26,300 600 Climbing Chicago Center
08:23AM 42.1378 -86.3231 87° East 420 483 26,800 1,020 Climbing Chicago Center
08:25AM 42.1425 -86.1572 88° East 438 504 28,500 1,380 Climbing Chicago Center
08:26AM 42.1439 -85.9711 89° East 442 509 29,700 1,020 Climbing Chicago Center
08:27AM 42.1417 -85.8014 91° East 454 522 30,700 960 Climbing Chicago Center
08:28AM 42.1389 -85.6286 91° East 462 532 31,800 900 Climbing Chicago Center
08:29AM 42.1375 -85.4531 91° East 468 539 32,600 1,200 Climbing Chicago Center
08:30AM 42.1367 -85.2764 90° East 472 543 34,300 1,440 Climbing Chicago Center
08:31AM 42.1342 -85.0656 91° East 472 543 35,600 1,020 Climbing Chicago Center
08:32AM 42.1322 -84.8953 91° East 463 533 36,500 600 Climbing Chicago Center
08:33AM 42.1300 -84.7233 91° East 461 531 36,900 240 Climbing Chicago Center
08:34AM 42.1286 -84.5486 91° East 466 536 37,000  Climbing Chicago Center
08:35AM 42.1267 -84.3767 91° East 463 533 37,000  Level Chicago Center
08:36AM 42.1247 -84.2025 91° East 466 536 37,000  Level Chicago Center
08:37AM 42.1189 -84.0208 92° East 458 527 37,000  Level Cleveland Center
08:38AM 42.1178 -83.8472 90° East 464 534 37,000  Level Cleveland Center
08:39AM 42.1122 -83.6733 92° East 464 534 37,000  Level Cleveland Center
08:40AM 42.1089 -83.4800 91° East 464 534 37,000  Level Cleveland Center
08:41AM 42.1064 -83.3233 91° East 464 534 37,000  Level Cleveland Center
08:42AM 42.1022 -83.1439 92° East 470 541 37,000  Level Cleveland Center
08:43AM 42.0997 -82.9731 91° East 470 541 37,000  Level Cleveland Center
08:44AM 42.0950 -82.7967 92° East 465 535 37,000  Level Cleveland Center
08:45AM 42.0958 -82.6344 90° East 466 536 37,000  Level Cleveland Center
08:46AM 42.0869 -82.4297 93° East 473 544 37,000  Level Cleveland Center
08:47AM 42.0875 -82.2481 90° East 473 544 37,000  Level Cleveland Center
08:48AM 42.0775 -82.0769 94° East 473 544 37,000  Level Cleveland Center
08:49AM 42.0711 -81.9061 93° East 468 539 37,000  Level Cleveland Center
08:50AM 42.0647 -81.7272 93° East 468 539 37,000  Level Cleveland Center
08:51AM 42.0581 -81.5536 93° East 461 531 37,000  Level Cleveland Center
08:52AM 42.0531 -81.3800 92° East 461 531 37,000  Level Cleveland Center
08:53AM 42.0458 -81.2206 93° East 461 531 37,000  Level Cleveland Center
08:54AM 42.0383 -81.0444 93° East 468 539 37,000  Level Cleveland Center
08:55AM 42.0325 -80.8683 92° East 463 533 37,000  Level Cleveland Center
08:56AM 42.0244 -80.6978 94° East 463 533 37,000  Level Cleveland Center
08:57AM 42.0161 -80.5244 94° East 463 533 37,000  Level Cleveland Center
08:58AM 42.0078 -80.3456 94° East 463 533 37,000  Level Cleveland Center
08:59AM 42.0008 -80.1528 93° East 463 533 37,000  Level Cleveland Center
09:00AM 41.9917 -79.9797 94° East 463 533 37,000 300 Level Cleveland Center
09:01AM 41.9844 -79.8067 93° East 463 533 37,700 600 Climbing Cleveland Center
09:02AM 41.9747 -79.6281 94° East 463 533 38,200 540 Climbing Cleveland Center
09:03AM 41.9647 -79.4522 94° East 468 539 38,800 360 Climbing Cleveland Center
09:04AM 41.9547 -79.2736 94° East 468 539 39,000 60 Climbing Cleveland Center
09:05AM 41.9442 -79.0953 94° East 473 544 39,000  Level Cleveland Center
09:06AM 41.9333 -78.9169 95° East 479 551 39,000  Level Cleveland Center
09:07AM 41.9244 -78.7411 94° East 479 551 39,000  Level Cleveland Center
09:08AM 41.9111 -78.5658 96° East 479 551 39,000  Level Cleveland Center
09:09AM 41.9017 -78.3903 94° East 473 544 39,000  Level Cleveland Center
09:10AM 41.8850 -78.1650 96° East 478 550 39,000  Level New York Center
09:11AM 41.8717 -77.9742 95° East 478 550 39,000  Level New York Center
09:12AM 41.8525 -77.8050 99° East 466 536 39,000  Level New York Center
09:13AM 41.8119 -77.6447 109° East 455 524 39,000  Level New York Center
09:14AM 41.7686 -77.4900 111° Southeast 449 517 39,000  Level New York Center
09:15AM 41.7203 -77.3156 110° East 457 526 39,000 -240 Level New York Center
09:16AM 41.6808 -77.1589 109° East 457 526 38,600 -600 Descending New York Center
09:17AM 41.6372 -76.9994 110° East 457 526 37,900 -660 Descending New York Center
09:18AM 41.5950 -76.8456 110° East 451 519 37,400 -600 Descending New York Center
09:19AM 41.5511 -76.6864 110° East 451 519 36,800 -600 Descending New York Center
09:20AM 41.5092 -76.5247 109° East 451 519 36,200 -540 Descending New York Center
09:21AM 41.4775 -76.4003 109° East 451 519 35,800 -540 Descending New York Center
09:22AM 41.4256 -76.2186 111° Southeast 461 531 35,200 -780 Descending New York Center
09:23AM 41.3767 -76.0572 112° Southeast 467 537 34,300 -1,800 Descending New York Center
09:24AM 41.3317 -75.8961 110° East 467 537 31,600 -2,880 Descending New York Center
09:25AM 41.2844 -75.7325 111° Southeast 467 537 28,700 -2,640 Descending New York Center
09:26AM 41.2328 -75.5714 113° Southeast 467 537 26,500 -2,100 Descending New York Center
09:27AM 41.1825 -75.4189 114° Southeast 462 532 24,600 -1,740 Descending New York Center
09:28AM 41.1319 -75.2722 115° Southeast 447 514 23,100 -840 Descending New York Center
09:29AM 41.0869 -75.1397 114° Southeast 421 484 23,000 -60 Descending New York Center
09:30AM 41.0419 -75.0050 114° Southeast 402 463 23,000  Level New York Center
09:31AM 41.0008 -74.8675 112° Southeast 397 457 23,000  Level New York Center
09:32AM 40.9789 -74.7178 101° East 397 457 23,000 -180 Level New York Center
09:33AM 40.9631 -74.5714 98° East 402 463 22,700 -840 Descending New York Center
09:34AM 40.9500 -74.4500 98° East 404 465 21,700 -1,500 Descending New York TRACON
09:35AM 40.9167 -74.3333 111° Southeast 371 427 20,300 -1,320 Descending New York TRACON
09:36AM 40.8500 -74.2333 131° Southeast 343 395 19,100 -1,320 Descending New York TRACON
09:37AM 40.7833 -74.1500 137° Southeast 326 375 17,700 -1,500 Descending New York TRACON
09:38AM 40.7000 -74.0833 149° Southeast 315 362 16,000 -1,500 Descending New York TRACON
09:39AM 40.6333 -74.0500 159° South 305 351 14,700 -1,740 Descending New York TRACON
09:40AM 40.5667 -73.9667 136° Southeast 314 361 12,700 -2,580 Descending New York TRACON
09:41AM 40.5167 -73.9000 135° Southeast 302 348 9,600 -2,940 Descending New York TRACON
09:42AM 40.4500 -73.8167 136° Southeast 282 325 6,900 -2,340 Descending New York TRACON
09:43AM 40.4167 -73.7500 123° Southeast 278 320 5,200 -1,680 Descending New York TRACON
09:44AM 40.4000 -73.6500 102° East 286 329 3,800 -1,080 Descending New York TRACON
09:45AM 40.4500 -73.5667 52° Northeast 289 333 3,000 -420 Descending New York TRACON
09:46AM 40.5167 -73.5167 30° Northeast 287 330 3,000  Level New York TRACON
09:47AM 40.6000 -73.5000 North 281 323 3,000  Level New York TRACON
09:48AM 40.6667 -73.5167 349° North 279 321 3,000  Level New York TRACON
09:49AM 40.7333 -73.5500 339° North 240 276 3,000 -240 Level New York TRACON
09:50AM 40.7833 -73.6000 323° Northwest 218 251 2,600 -540 Descending New York TRACON
09:51AM 40.7667 -73.6667 252° West 191 220 2,000 -480 Descending New York TRACON
09:52AM 40.7167 -73.7000 207° Southwest 155 178 1,800 -480 Descending New York TRACON
09:53AM 40.7000 -73.7167 217° Southwest 128 147 1,100 -720 Descending New York TRACON
09:54AM 40.6667 -73.7500 217° Southwest 128 147 400 -720 Descending New York TRACON
09:56AM 40.6333 -73.7667 150° Southeast  Level FlightAware Approximate